createdAt,value
2018-07-15T00:00:44.420Z,101395.16
2018-07-15T00:03:13.315Z,101397.03
2018-07-15T00:05:42.273Z,101394.45
2018-07-15T00:08:10.944Z,101398.23
2018-07-15T00:10:44.834Z,101390.41
2018-07-15T00:13:14.196Z,101393.00
2018-07-15T00:15:44.065Z,101385.58
2018-07-15T00:18:12.702Z,101385.89
2018-07-15T00:20:41.392Z,101378.66
2018-07-15T00:23:10.144Z,101390.34
2018-07-15T00:25:38.841Z,101384.00
2018-07-15T00:28:07.498Z,101384.77
2018-07-15T00:30:36.528Z,101390.41
2018-07-15T00:33:05.618Z,101386.12
2018-07-15T00:35:34.304Z,101388.09
2018-07-15T00:38:03.334Z,101383.52
2018-07-15T00:40:31.982Z,101380.08
2018-07-15T00:43:01.081Z,101380.39
2018-07-15T00:45:29.735Z,101384.87
2018-07-15T00:47:58.397Z,101380.19
2018-07-15T00:50:27.500Z,101382.30
2018-07-15T00:52:56.435Z,101381.68
2018-07-15T00:55:25.205Z,101384.91
2018-07-15T00:57:53.873Z,101386.12
2018-07-15T01:00:28.184Z,101383.63
2018-07-15T01:02:56.866Z,101380.85
2018-07-15T01:05:25.495Z,101386.98
2018-07-15T01:07:54.155Z,101386.80
2018-07-15T01:10:22.976Z,101381.43
2018-07-15T01:12:52.024Z,101385.24
2018-07-15T01:15:20.672Z,101382.16
2018-07-15T01:17:49.620Z,101383.74
2018-07-15T01:20:18.834Z,101380.62
2018-07-15T01:22:47.811Z,101388.63
2018-07-15T01:25:16.491Z,101385.09
2018-07-15T01:27:45.422Z,101387.17
2018-07-15T01:30:14.123Z,101383.45
2018-07-15T01:32:42.996Z,101381.16
2018-07-15T01:35:12.072Z,101386.28
2018-07-15T01:37:41.273Z,101380.13
2018-07-15T01:40:10.251Z,101379.02
2018-07-15T01:42:39.831Z,101378.91
2018-07-15T01:45:08.470Z,101378.59
2018-07-15T01:47:37.351Z,101378.92
2018-07-15T01:50:06.008Z,101372.92
2018-07-15T01:52:35.075Z,101375.44
2018-07-15T01:55:03.759Z,101380.52
2018-07-15T01:57:32.947Z,101378.34
2018-07-15T02:00:01.603Z,101380.20
2018-07-15T02:02:30.559Z,101382.39
2018-07-15T02:04:59.249Z,101380.93
2018-07-15T02:07:28.159Z,101375.42
2018-07-15T02:09:56.863Z,101374.90
2018-07-15T02:12:25.550Z,101377.91
2018-07-15T02:14:54.242Z,101374.38
2018-07-15T02:17:22.947Z,101376.88
2018-07-15T02:19:51.839Z,101370.77
2018-07-15T02:22:20.547Z,101379.48
2018-07-15T02:24:49.262Z,101368.38
2018-07-15T02:27:18.479Z,101371.92
2018-07-15T02:29:47.194Z,101364.64
2018-07-15T02:32:15.853Z,101369.92
2018-07-15T02:34:44.494Z,101369.33
2018-07-15T02:37:13.107Z,101369.09
2018-07-15T02:39:42.054Z,101364.84
2018-07-15T02:42:10.948Z,101368.00
2018-07-15T02:44:39.626Z,101365.98
2018-07-15T02:47:08.293Z,101368.38
2018-07-15T02:49:36.922Z,101367.14
2018-07-15T02:52:05.695Z,101367.66
2018-07-15T02:54:35.188Z,101365.67
2018-07-15T02:57:03.950Z,101368.58
2018-07-15T02:59:32.614Z,101361.64
2018-07-15T03:02:01.557Z,101360.80
2018-07-15T03:04:30.779Z,101367.87
2018-07-15T03:06:59.472Z,101365.89
2018-07-15T03:09:28.122Z,101363.40
2018-07-15T03:11:56.792Z,101365.27
2018-07-15T03:14:25.728Z,101364.75
2018-07-15T03:16:54.354Z,101367.56
2018-07-15T03:19:23.005Z,101368.59
2018-07-15T03:21:52.300Z,101367.76
2018-07-15T03:24:21.295Z,101368.59
2018-07-15T03:26:50.026Z,101368.19
2018-07-15T03:29:19.262Z,101373.27
2018-07-15T03:31:48.321Z,101374.94
2018-07-15T03:34:17.874Z,101373.27
2018-07-15T03:36:46.542Z,101375.22
2018-07-15T03:39:16.205Z,101376.37
2018-07-15T03:41:44.996Z,101373.56
2018-07-15T03:44:13.748Z,101373.78
2018-07-15T03:46:42.434Z,101372.13
2018-07-15T03:49:11.266Z,101376.89
2018-07-15T03:51:39.952Z,101374.11
2018-07-15T03:54:08.764Z,101369.31
2018-07-15T03:56:37.534Z,101373.78
2018-07-15T03:59:06.454Z,101376.48
2018-07-15T04:01:35.449Z,101375.14
2018-07-15T04:04:04.068Z,101377.72
2018-07-15T04:06:32.782Z,101373.27
2018-07-15T04:09:01.494Z,101381.55
2018-07-15T04:11:30.325Z,101381.16
2018-07-15T04:13:59.394Z,101378.53
2018-07-15T04:16:28.025Z,101382.38
2018-07-15T04:18:57.330Z,101376.27
2018-07-15T04:21:26.043Z,101383.98
2018-07-15T04:23:54.822Z,101391.45
2018-07-15T04:26:23.536Z,101383.23
2018-07-15T04:28:52.301Z,101388.23
2018-07-15T04:31:20.970Z,101383.15
2018-07-15T04:33:49.615Z,101384.58
2018-07-15T04:36:18.242Z,101387.92
2018-07-15T04:38:46.917Z,101389.56
2018-07-15T04:41:15.923Z,101385.81
2018-07-15T04:43:44.558Z,101390.38
2018-07-15T04:46:13.544Z,101387.59
2018-07-15T04:48:42.267Z,101388.83
2018-07-15T04:51:11.191Z,101391.72
2018-07-15T04:53:40.064Z,101399.50
2018-07-15T04:56:08.923Z,101399.30
2018-07-15T04:58:37.860Z,101399.93
2018-07-15T05:01:06.550Z,101402.63
2018-07-15T05:03:35.436Z,101408.65
2018-07-15T05:06:04.417Z,101404.29
2018-07-15T05:08:33.079Z,101402.54
2018-07-15T05:11:02.021Z,101409.28
2018-07-15T05:13:30.679Z,101405.27
2018-07-15T05:15:59.335Z,101414.59
2018-07-15T05:18:28.297Z,101404.75
2018-07-15T05:20:57.066Z,101410.98
2018-07-15T05:23:26.371Z,101414.91
2018-07-15T05:25:54.990Z,101419.47
2018-07-15T05:28:23.712Z,101422.16
2018-07-15T05:30:52.413Z,101421.42
2018-07-15T05:33:21.177Z,101419.14
2018-07-15T05:35:49.851Z,101418.61
2018-07-15T05:38:18.845Z,101416.30
2018-07-15T05:40:47.478Z,101419.73
2018-07-15T05:43:16.127Z,101423.45
2018-07-15T05:45:44.789Z,101417.53
2018-07-15T05:48:13.492Z,101419.06
2018-07-15T05:50:42.180Z,101416.27
2018-07-15T05:53:10.817Z,101414.38
2018-07-15T05:55:39.689Z,101416.02
2018-07-15T05:58:08.569Z,101418.89
2018-07-15T06:00:37.449Z,101425.62
2018-07-15T06:03:06.369Z,101422.84
2018-07-15T06:05:35.010Z,101417.00
2018-07-15T06:08:03.673Z,101421.78
2018-07-15T06:10:32.602Z,101415.40
2018-07-15T06:13:01.613Z,101416.09
2018-07-15T06:15:31.264Z,101420.66
2018-07-15T06:17:59.912Z,101421.50
2018-07-15T06:20:28.610Z,101419.21
2018-07-15T06:22:57.937Z,101413.80
2018-07-15T06:25:26.927Z,101412.94
2018-07-15T06:27:56.135Z,101423.92
2018-07-15T06:30:24.847Z,101415.70
2018-07-15T06:32:53.738Z,101416.60
2018-07-15T06:35:22.421Z,101418.77
2018-07-15T06:37:51.213Z,101417.75
2018-07-15T06:40:20.076Z,101414.13
2018-07-15T06:42:48.915Z,101410.82
2018-07-15T06:45:17.552Z,101407.42
2018-07-15T06:47:46.183Z,101418.44
2018-07-15T06:50:14.851Z,101417.57
2018-07-15T06:52:43.848Z,101416.57
2018-07-15T06:55:12.462Z,101411.15
2018-07-15T06:57:41.087Z,101409.02
2018-07-15T07:00:10.000Z,101412.22
2018-07-15T07:02:38.723Z,101405.20
2018-07-15T07:05:07.989Z,101404.22
2018-07-15T07:07:37.029Z,101401.52
2018-07-15T07:10:05.669Z,101399.74
2018-07-15T07:12:34.309Z,101404.59
2018-07-15T07:15:03.011Z,101411.52
2018-07-15T07:17:31.974Z,101411.23
2018-07-15T07:20:00.981Z,101401.08
2018-07-15T07:22:29.580Z,101399.37
2018-07-15T07:24:58.224Z,101390.77
2018-07-15T07:27:27.078Z,101402.92
2018-07-15T07:29:56.136Z,101405.70
2018-07-15T07:32:24.739Z,101406.28
2018-07-15T07:34:53.689Z,101397.86
2018-07-15T07:37:22.718Z,101395.98
2018-07-15T07:39:51.434Z,101399.70
2018-07-15T07:42:20.131Z,101390.81
2018-07-15T07:44:48.767Z,101384.87
2018-07-15T07:47:17.486Z,101388.91
2018-07-15T07:49:46.174Z,101389.10
2018-07-15T07:52:15.081Z,101390.52
2018-07-15T07:54:44.184Z,101388.17
2018-07-15T07:57:13.147Z,101389.91
2018-07-15T07:59:41.919Z,101386.74
2018-07-15T08:02:10.602Z,101381.34
2018-07-15T08:04:39.288Z,101388.69
2018-07-15T08:07:08.432Z,101381.20
2018-07-15T08:09:37.446Z,101381.05
2018-07-15T08:12:06.187Z,101381.00
2018-07-15T08:14:35.284Z,101377.89
2018-07-15T08:17:03.978Z,101379.70
2018-07-15T08:19:32.640Z,101381.19
2018-07-15T08:22:01.314Z,101384.30
2018-07-15T08:24:29.999Z,101378.92
2018-07-15T08:26:59.095Z,101388.14
2018-07-15T08:29:27.789Z,101387.33
2018-07-15T08:31:56.486Z,101385.48
2018-07-15T08:34:25.274Z,101388.67
2018-07-15T08:36:53.942Z,101387.66
2018-07-15T08:39:23.279Z,101384.47
2018-07-15T08:41:51.959Z,101386.41
2018-07-15T08:44:20.703Z,101384.67
2018-07-15T08:46:50.333Z,101382.41
2018-07-15T08:49:19.073Z,101381.63
2018-07-15T08:51:47.972Z,101386.28
2018-07-15T08:54:16.655Z,101390.67
2018-07-15T08:56:45.331Z,101385.70
2018-07-15T08:59:14.112Z,101389.25
2018-07-15T09:01:42.830Z,101384.00
2018-07-15T09:04:11.763Z,101378.33
2018-07-15T09:06:41.924Z,101376.31
2018-07-15T09:09:11.232Z,101374.78
2018-07-15T09:11:40.230Z,101382.79
2018-07-15T09:14:10.656Z,101384.98
2018-07-15T09:16:39.899Z,101380.47
2018-07-15T09:19:09.130Z,101376.84
2018-07-15T09:21:38.423Z,101382.05
2018-07-15T09:24:07.944Z,101385.13
2018-07-15T09:26:37.232Z,101390.16
2018-07-15T09:29:06.754Z,101380.03
2018-07-15T09:31:36.478Z,101381.56
2018-07-15T09:34:05.563Z,101383.33
2018-07-15T09:36:34.507Z,101376.39
2018-07-15T09:39:03.661Z,101385.17
2018-07-15T09:41:32.622Z,101377.93
2018-07-15T09:44:01.768Z,101383.84
2018-07-15T09:46:30.429Z,101379.66
2018-07-15T09:48:59.087Z,101370.72
2018-07-15T09:51:27.887Z,101365.76
2018-07-15T09:53:57.122Z,101373.00
2018-07-15T09:56:25.836Z,101370.76
2018-07-15T09:58:54.572Z,101367.30
2018-07-15T10:01:23.253Z,101369.26
2018-07-15T10:03:52.002Z,101370.77
2018-07-15T10:06:20.726Z,101365.60
2018-07-15T10:08:49.399Z,101364.05
2018-07-15T10:11:18.115Z,101360.70
2018-07-15T10:13:47.512Z,101361.95
2018-07-15T10:16:16.496Z,101360.30
2018-07-15T10:18:45.210Z,101362.13
2018-07-15T10:21:13.892Z,101359.00
2018-07-15T10:23:42.896Z,101362.52
2018-07-15T10:26:11.749Z,101358.59
2018-07-15T10:28:40.485Z,101365.50
2018-07-15T10:31:10.023Z,101351.28
2018-07-15T10:33:38.701Z,101346.33
2018-07-15T10:36:11.537Z,101343.38
2018-07-15T10:38:40.584Z,101343.99
2018-07-15T10:41:09.573Z,101356.72
2018-07-15T10:43:43.537Z,101347.04
2018-07-15T10:46:12.172Z,101351.54
2018-07-15T10:48:40.873Z,101345.91
2018-07-15T10:51:10.256Z,101346.47
2018-07-15T10:53:39.275Z,101347.31
2018-07-15T10:56:09.017Z,101340.56
2018-07-15T10:58:37.743Z,101338.39
2018-07-15T11:01:09.630Z,101337.55
2018-07-15T11:03:38.204Z,101334.00
2018-07-15T11:06:07.180Z,101330.42
2018-07-15T11:08:36.073Z,101328.09
2018-07-15T11:11:04.904Z,101329.59
2018-07-15T11:13:33.602Z,101329.28
2018-07-15T11:16:02.259Z,101332.55
2018-07-15T11:18:31.329Z,101329.53
2018-07-15T11:21:00.323Z,101326.16
2018-07-15T11:23:29.017Z,101321.45
2018-07-15T11:25:58.124Z,101323.30
2018-07-15T11:28:27.171Z,101314.51
2018-07-15T11:30:57.576Z,101313.71
2018-07-15T11:33:26.223Z,101314.77
2018-07-15T11:35:55.147Z,101312.45
2018-07-15T11:38:23.941Z,101310.50
2018-07-15T11:40:53.122Z,101309.80
2018-07-15T11:43:21.877Z,101298.93
2018-07-15T11:45:51.003Z,101298.97
2018-07-15T11:48:19.763Z,101299.03
2018-07-15T11:50:48.493Z,101299.25
2018-07-15T11:53:17.450Z,101293.50
2018-07-15T11:55:46.418Z,101291.45
2018-07-15T11:58:15.427Z,101287.44
2018-07-15T12:00:44.406Z,101279.89
2018-07-15T12:03:13.191Z,101279.84
2018-07-15T12:05:42.442Z,101281.35
2018-07-15T12:08:11.190Z,101277.95
2018-07-15T12:10:40.119Z,101272.00
2018-07-15T12:13:09.185Z,101270.62
2018-07-15T12:15:37.854Z,101259.73
2018-07-15T12:18:06.896Z,101265.48
2018-07-15T12:20:35.828Z,101257.95
2018-07-15T12:23:04.599Z,101254.70
2018-07-15T12:25:33.374Z,101263.95
2018-07-15T12:28:02.074Z,101264.56
2018-07-15T12:30:31.148Z,101256.66
2018-07-15T12:32:59.805Z,101256.69
2018-07-15T12:35:28.647Z,101246.49
2018-07-15T12:37:57.504Z,101244.83
2018-07-15T12:40:26.140Z,101255.06
2018-07-15T12:42:54.774Z,101245.98
2018-07-15T12:45:23.407Z,101239.12
2018-07-15T12:47:52.095Z,101245.78
2018-07-15T12:50:20.864Z,101233.08
2018-07-15T12:52:49.726Z,101239.94
2018-07-15T12:55:18.663Z,101233.55
2018-07-15T12:57:47.378Z,101232.69
2018-07-15T13:00:16.197Z,101224.50
2018-07-15T13:02:44.918Z,101227.30
2018-07-15T13:05:14.053Z,101218.66
2018-07-15T13:07:42.694Z,101217.77
2018-07-15T13:10:11.372Z,101219.77
2018-07-15T13:12:40.022Z,101216.17
2018-07-15T13:15:08.946Z,101225.25
2018-07-15T13:17:37.662Z,101215.42
2018-07-15T13:20:11.523Z,101214.98
2018-07-15T13:22:40.284Z,101218.02
2018-07-15T13:25:09.383Z,101204.73
2018-07-15T13:27:38.422Z,101211.14
2018-07-15T13:30:07.836Z,101205.02
2018-07-15T13:32:36.888Z,101208.23
2018-07-15T13:35:06.107Z,101197.22
2018-07-15T13:37:35.266Z,101197.49
2018-07-15T13:40:08.604Z,101202.34
2018-07-15T13:42:41.732Z,101193.37
2018-07-15T13:45:10.781Z,101187.19
2018-07-15T13:47:42.382Z,101199.88
2018-07-15T13:50:12.424Z,101190.52
2018-07-15T13:52:41.143Z,101196.45
2018-07-15T13:55:14.613Z,101192.33
2018-07-15T13:57:43.431Z,101186.19
2018-07-15T14:00:12.230Z,101185.19
2018-07-15T14:02:41.034Z,101182.61
2018-07-15T14:05:10.175Z,101191.58
2018-07-15T14:07:39.598Z,101186.42
2018-07-15T14:10:08.537Z,101181.37
2018-07-15T14:12:37.640Z,101177.38
2018-07-15T14:15:06.468Z,101179.39
2018-07-15T14:17:36.121Z,101180.23
2018-07-15T14:20:04.973Z,101168.94
2018-07-15T14:22:33.722Z,101167.33
2018-07-15T14:25:05.406Z,101167.58
2018-07-15T14:27:34.129Z,101166.13
2018-07-15T14:30:04.511Z,101164.73
2018-07-15T14:32:33.895Z,101158.17
2018-07-15T14:35:02.982Z,101160.61
2018-07-15T14:37:31.856Z,101153.02
2018-07-15T14:40:00.584Z,101147.70
2018-07-15T14:42:29.271Z,101149.05
2018-07-15T14:44:58.334Z,101140.01
2018-07-15T14:47:27.381Z,101143.66
2018-07-15T14:49:56.760Z,101141.63
2018-07-15T14:52:25.500Z,101139.53
2018-07-15T14:54:54.150Z,101137.67
2018-07-15T14:57:23.371Z,101138.83
2018-07-15T14:59:52.273Z,101133.38
2018-07-15T15:02:21.461Z,101125.91
2018-07-15T15:04:50.887Z,101126.22
2018-07-15T15:07:20.300Z,101125.31
2018-07-15T15:09:49.745Z,101130.70
2018-07-15T15:12:18.543Z,101127.39
2018-07-15T15:14:47.715Z,101131.23
2018-07-15T15:17:16.408Z,101120.94
2018-07-15T15:19:45.134Z,101117.56
2018-07-15T15:22:13.877Z,101117.25
2018-07-15T15:24:42.637Z,101115.32
2018-07-15T15:27:11.317Z,101115.13
2018-07-15T15:29:40.092Z,101119.31
2018-07-15T15:32:09.353Z,101110.92
2018-07-15T15:34:38.235Z,101114.50
2018-07-15T15:37:07.334Z,101115.39
2018-07-15T15:39:36.130Z,101110.98
2018-07-15T15:42:04.846Z,101109.41
2018-07-15T15:44:33.575Z,101106.69
2018-07-15T15:47:02.860Z,101108.45
2018-07-15T15:49:31.596Z,101107.49
2018-07-15T15:52:03.510Z,101102.69
2018-07-15T15:54:40.930Z,101098.09
2018-07-15T15:57:10.651Z,101089.64
2018-07-15T15:59:39.637Z,101081.50
2018-07-15T16:02:08.694Z,101089.72
2018-07-15T16:04:37.984Z,101088.65
2018-07-15T16:07:06.739Z,101084.81
2018-07-15T16:09:35.844Z,101082.09
2018-07-15T16:12:06.929Z,101076.38
2018-07-15T16:14:35.595Z,101075.02
2018-07-15T16:17:04.327Z,101077.21
2018-07-15T16:19:33.194Z,101077.78
2018-07-15T16:22:02.666Z,101080.23
2018-07-15T16:24:31.861Z,101075.33
2018-07-15T16:27:00.622Z,101072.02
2018-07-15T16:29:29.616Z,101071.19
2018-07-15T16:31:58.593Z,101069.00
2018-07-15T16:34:27.296Z,101070.09
2018-07-15T16:36:55.943Z,101069.81
2018-07-15T16:39:24.787Z,101071.45
2018-07-15T16:41:53.835Z,101068.98
2018-07-15T16:44:22.854Z,101068.96
2018-07-15T16:46:52.331Z,101074.95
2018-07-15T16:49:21.638Z,101070.87
2018-07-15T16:51:51.027Z,101068.13
2018-07-15T16:54:19.995Z,101073.03
2018-07-15T16:56:49.156Z,101066.22
2018-07-15T16:59:17.919Z,101064.59
2018-07-15T17:01:46.628Z,101069.20
2018-07-15T17:04:15.660Z,101062.94
2018-07-15T17:06:44.451Z,101064.59
2018-07-15T17:09:13.639Z,101062.09
2018-07-15T17:11:42.749Z,101056.84
2018-07-15T17:14:11.750Z,101070.23
2018-07-15T17:16:40.512Z,101063.39
2018-07-15T17:19:09.532Z,101060.09
2018-07-15T17:21:38.300Z,101060.64
2018-07-15T17:24:07.065Z,101062.53
2018-07-15T17:26:35.739Z,101058.95
2018-07-15T17:29:04.476Z,101064.67
2018-07-15T17:31:33.357Z,101064.96
2018-07-15T17:34:03.760Z,101063.86
2018-07-15T17:36:32.508Z,101061.91
2018-07-15T17:39:01.185Z,101062.70
2018-07-15T17:41:31.510Z,101069.50
2018-07-15T17:44:00.534Z,101068.66
2018-07-15T17:46:29.468Z,101064.80
2018-07-15T17:48:59.715Z,101069.70
2018-07-15T17:51:28.695Z,101063.95
2018-07-15T17:53:57.749Z,101064.19
2018-07-15T17:56:27.217Z,101062.80
2018-07-15T17:58:56.963Z,101061.70
2018-07-15T18:01:25.817Z,101064.92
2018-07-15T18:03:54.638Z,101069.30
2018-07-15T18:06:23.375Z,101058.91
2018-07-15T18:08:52.175Z,101066.00
2018-07-15T18:11:20.970Z,101067.34
2018-07-15T18:13:50.919Z,101068.94
2018-07-15T18:16:20.599Z,101065.94
2018-07-15T18:18:52.418Z,101066.70
2018-07-15T18:21:21.737Z,101074.59
2018-07-15T18:23:51.546Z,101065.91
2018-07-15T18:26:20.433Z,101067.78
2018-07-15T18:28:49.069Z,101074.31
2018-07-15T18:31:17.809Z,101080.03
2018-07-15T18:33:47.033Z,101085.51
2018-07-15T18:36:15.742Z,101084.69
2018-07-15T18:38:44.528Z,101084.37
2018-07-15T18:41:13.292Z,101089.55
2018-07-15T18:43:42.039Z,101087.33
2018-07-15T18:46:10.880Z,101091.41
2018-07-15T18:48:39.639Z,101091.67
2018-07-15T18:51:08.440Z,101096.58
2018-07-15T18:53:37.493Z,101096.84
2018-07-15T18:56:06.228Z,101106.64
2018-07-15T18:58:35.259Z,101101.16
2018-07-15T19:01:04.086Z,101097.89
2018-07-15T19:03:33.074Z,101098.67
2018-07-15T19:06:01.870Z,101101.87
2018-07-15T19:08:30.818Z,101104.89
2018-07-15T19:10:59.543Z,101103.74
2018-07-15T19:13:28.350Z,101104.28
2018-07-15T19:15:57.411Z,101115.19
2018-07-15T19:18:26.273Z,101109.16
2018-07-15T19:20:55.122Z,101110.27
2018-07-15T19:23:23.822Z,101116.55
2018-07-15T19:25:52.692Z,101115.15
2018-07-15T19:28:21.793Z,101113.21
2018-07-15T19:30:50.482Z,101115.04
2018-07-15T19:33:19.548Z,101115.78
2018-07-15T19:35:48.265Z,101122.59
2018-07-15T19:38:17.030Z,101123.09
2018-07-15T19:40:45.967Z,101123.92
2018-07-15T19:43:14.685Z,101128.22
2018-07-15T19:45:46.852Z,101122.72
2018-07-15T19:48:16.943Z,101121.85
2018-07-15T19:50:45.776Z,101125.90
2018-07-15T19:53:14.501Z,101129.11
2018-07-15T19:55:43.232Z,101132.61
2018-07-15T19:58:12.013Z,101127.38
2018-07-15T20:00:41.115Z,101129.73
2018-07-15T20:03:10.453Z,101124.23
2018-07-15T20:05:39.270Z,101126.86
2018-07-15T20:08:09.941Z,101120.78
2018-07-15T20:10:40.483Z,101128.36
2018-07-15T20:13:10.494Z,101127.66
2018-07-15T20:15:40.171Z,101130.48
2018-07-15T20:18:09.641Z,101134.63
2018-07-15T20:20:39.667Z,101138.02
2018-07-15T20:23:10.605Z,101135.73
2018-07-15T20:25:40.416Z,101132.41
2018-07-15T20:28:09.301Z,101133.06
2018-07-15T20:30:38.323Z,101136.44
2018-07-15T20:33:08.597Z,101133.40
2018-07-15T20:35:38.729Z,101132.52
2018-07-15T20:38:09.407Z,101126.95
2018-07-15T20:40:38.649Z,101124.40
2018-07-15T20:43:10.089Z,101118.91
2018-07-15T20:45:39.497Z,101115.58
2018-07-15T20:48:08.292Z,101115.98
2018-07-15T20:50:37.375Z,101110.47
2018-07-15T20:53:06.537Z,101116.59
2018-07-15T20:55:35.214Z,101124.33
2018-07-15T20:58:04.614Z,101124.22
2018-07-15T21:00:33.613Z,101121.36
2018-07-15T21:03:02.962Z,101115.55
2018-07-15T21:05:32.563Z,101114.63
2018-07-15T21:08:02.096Z,101119.53
2018-07-15T21:10:30.895Z,101122.01
2018-07-15T21:13:00.043Z,101125.49
2018-07-15T21:15:33.137Z,101126.55
2018-07-15T21:18:02.254Z,101124.52
2018-07-15T21:20:31.258Z,101125.78
2018-07-15T21:23:00.464Z,101124.80
2018-07-15T21:25:29.738Z,101124.20
2018-07-15T21:27:59.168Z,101129.78
2018-07-15T21:30:28.429Z,101131.53
2018-07-15T21:32:57.861Z,101127.98
2018-07-15T21:35:27.511Z,101133.25
2018-07-15T21:37:56.810Z,101130.21
2018-07-15T21:40:26.990Z,101137.86
2018-07-15T21:42:55.995Z,101147.72
2018-07-15T21:45:25.264Z,101139.97
2018-07-15T21:47:54.197Z,101138.47
2018-07-15T21:50:23.622Z,101142.69
2018-07-15T21:52:52.261Z,101146.69
2018-07-15T21:55:21.371Z,101145.99
2018-07-15T21:57:50.320Z,101146.91
2018-07-15T22:00:19.255Z,101151.91
2018-07-15T22:02:48.334Z,101145.77
2018-07-15T22:05:17.678Z,101141.49
2018-07-15T22:07:57.455Z,101155.95
2018-07-15T22:10:48.055Z,101161.95
2018-07-15T22:13:16.924Z,101151.63
2018-07-15T22:15:45.566Z,101156.22
2018-07-15T22:18:14.256Z,101155.16
2018-07-15T22:20:43.048Z,101152.21
2018-07-15T22:23:11.714Z,101155.81
2018-07-15T22:25:40.419Z,101163.70
2018-07-15T22:28:09.334Z,101161.58
2018-07-15T22:30:38.366Z,101167.59
2018-07-15T22:33:07.409Z,101163.52
2018-07-15T22:35:36.133Z,101159.74
2018-07-15T22:38:04.872Z,101162.75
2018-07-15T22:40:33.664Z,101151.63
2018-07-15T22:43:02.659Z,101155.37
2018-07-15T22:45:31.385Z,101161.87
2018-07-15T22:48:00.654Z,101162.10
2018-07-15T22:50:29.831Z,101163.46
2018-07-15T22:52:58.824Z,101164.79
2018-07-15T22:55:27.532Z,101161.48
2018-07-15T22:57:56.191Z,101169.33
2018-07-15T23:00:24.931Z,101176.06
2018-07-15T23:02:53.665Z,101170.60
2018-07-15T23:05:37.459Z,101171.66
2018-07-15T23:08:06.724Z,101162.16
2018-07-15T23:10:35.702Z,101164.28
2018-07-15T23:13:05.798Z,101159.34
2018-07-15T23:15:35.500Z,101162.83
2018-07-15T23:18:04.516Z,101160.88
2018-07-15T23:20:34.004Z,101155.69
2018-07-15T23:23:03.752Z,101153.20
2018-07-15T23:25:32.945Z,101149.56
2018-07-15T23:28:02.286Z,101157.68
2018-07-15T23:30:32.111Z,101150.00
2018-07-15T23:33:01.515Z,101153.78
2018-07-15T23:35:30.530Z,101149.37
2018-07-15T23:37:59.673Z,101161.52
2018-07-15T23:40:28.715Z,101155.20
2018-07-15T23:42:58.303Z,101168.44
2018-07-15T23:45:28.010Z,101169.50
2018-07-15T23:47:57.047Z,101164.01
2018-07-15T23:50:26.302Z,101167.22
2018-07-15T23:52:55.057Z,101169.04
2018-07-15T23:55:23.844Z,101161.42
2018-07-15T23:57:53.313Z,101164.53
